sensor_id;sensor_type;location;lat;lon;timestamp;P1;durP1;ratioP1;P2;durP2;ratioP2
7665;SDS011;3875;46.562;4.898;2023-04-16T00:00:51;8.10;;;5.50;;
7665;SDS011;3875;46.562;4.898;2023-04-16T00:03:16;10.50;;;5.70;;
7665;SDS011;3875;46.562;4.898;2023-04-16T00:05:42;8.70;;;5.37;;
7665;SDS011;3875;46.562;4.898;2023-04-16T00:08:08;6.63;;;5.93;;
7665;SDS011;3875;46.562;4.898;2023-04-16T00:10:33;6.90;;;5.90;;
7665;SDS011;3875;46.562;4.898;2023-04-16T00:12:59;8.60;;;6.70;;
7665;SDS011;3875;46.562;4.898;2023-04-16T00:15:25;8.47;;;6.53;;
7665;SDS011;3875;46.562;4.898;2023-04-16T00:17:51;7.27;;;6.30;;
7665;SDS011;3875;46.562;4.898;2023-04-16T00:20:16;9.30;;;6.47;;
7665;SDS011;3875;46.562;4.898;2023-04-16T00:22:44;6.53;;;5.80;;
7665;SDS011;3875;46.562;4.898;2023-04-16T00:25:10;7.40;;;6.10;;
7665;SDS011;3875;46.562;4.898;2023-04-16T00:27:35;7.93;;;6.33;;
7665;SDS011;3875;46.562;4.898;2023-04-16T00:30:01;9.23;;;6.43;;
7665;SDS011;3875;46.562;4.898;2023-04-16T00:32:27;11.50;;;6.73;;
7665;SDS011;3875;46.562;4.898;2023-04-16T00:34:54;8.20;;;6.30;;
7665;SDS011;3875;46.562;4.898;2023-04-16T00:37:19;13.20;;;6.43;;
7665;SDS011;3875;46.562;4.898;2023-04-16T00:39:45;9.60;;;6.67;;
7665;SDS011;3875;46.562;4.898;2023-04-16T00:42:11;8.60;;;6.70;;
7665;SDS011;3875;46.562;4.898;2023-04-16T00:44:36;9.27;;;6.30;;
7665;SDS011;3875;46.562;4.898;2023-04-16T00:47:02;8.97;;;6.43;;
7665;SDS011;3875;46.562;4.898;2023-04-16T00:49:28;8.60;;;6.23;;
7665;SDS011;3875;46.562;4.898;2023-04-16T00:51:55;8.70;;;6.70;;
7665;SDS011;3875;46.562;4.898;2023-04-16T00:54:20;8.13;;;6.00;;
7665;SDS011;3875;46.562;4.898;2023-04-16T00:56:46;8.33;;;6.37;;
7665;SDS011;3875;46.562;4.898;2023-04-16T00:59:12;6.47;;;5.87;;
7665;SDS011;3875;46.562;4.898;2023-04-16T01:01:38;10.20;;;6.90;;
7665;SDS011;3875;46.562;4.898;2023-04-16T01:04:04;8.93;;;6.20;;
7665;SDS011;3875;46.562;4.898;2023-04-16T01:06:31;10.03;;;6.67;;
7665;SDS011;3875;46.562;4.898;2023-04-16T01:08:56;10.97;;;6.73;;
7665;SDS011;3875;46.562;4.898;2023-04-16T01:11:22;10.10;;;7.03;;
7665;SDS011;3875;46.562;4.898;2023-04-16T01:13:48;8.00;;;6.60;;
7665;SDS011;3875;46.562;4.898;2023-04-16T01:16:13;9.97;;;6.37;;
7665;SDS011;3875;46.562;4.898;2023-04-16T01:18:39;8.17;;;6.63;;
7665;SDS011;3875;46.562;4.898;2023-04-16T01:21:05;8.93;;;6.90;;
7665;SDS011;3875;46.562;4.898;2023-04-16T01:23:31;7.33;;;6.50;;
7665;SDS011;3875;46.562;4.898;2023-04-16T01:25:56;8.33;;;6.37;;
7665;SDS011;3875;46.562;4.898;2023-04-16T01:28:22;6.33;;;5.70;;
7665;SDS011;3875;46.562;4.898;2023-04-16T01:30:47;7.83;;;6.13;;
7665;SDS011;3875;46.562;4.898;2023-04-16T01:33:13;9.53;;;6.20;;
7665;SDS011;3875;46.562;4.898;2023-04-16T01:35:39;8.73;;;5.80;;
7665;SDS011;3875;46.562;4.898;2023-04-16T01:38:06;9.83;;;5.83;;
7665;SDS011;3875;46.562;4.898;2023-04-16T01:40:33;8.57;;;6.40;;
7665;SDS011;3875;46.562;4.898;2023-04-16T01:42:59;9.57;;;6.20;;
7665;SDS011;3875;46.562;4.898;2023-04-16T01:45:25;12.23;;;6.37;;
7665;SDS011;3875;46.562;4.898;2023-04-16T01:47:51;9.50;;;6.13;;
7665;SDS011;3875;46.562;4.898;2023-04-16T01:50:17;7.67;;;5.33;;
7665;SDS011;3875;46.562;4.898;2023-04-16T01:52:44;12.47;;;6.83;;
7665;SDS011;3875;46.562;4.898;2023-04-16T01:55:10;9.97;;;6.57;;
7665;SDS011;3875;46.562;4.898;2023-04-16T01:57:35;7.30;;;6.10;;
7665;SDS011;3875;46.562;4.898;2023-04-16T02:00:02;7.93;;;6.07;;
7665;SDS011;3875;46.562;4.898;2023-04-16T02:02:28;6.37;;;5.77;;
7665;SDS011;3875;46.562;4.898;2023-04-16T02:04:54;8.10;;;5.73;;
7665;SDS011;3875;46.562;4.898;2023-04-16T02:07:21;8.50;;;5.73;;
7665;SDS011;3875;46.562;4.898;2023-04-16T02:09:47;6.93;;;5.50;;
7665;SDS011;3875;46.562;4.898;2023-04-16T02:12:14;7.53;;;5.33;;
7665;SDS011;3875;46.562;4.898;2023-04-16T02:14:40;7.00;;;5.47;;
7665;SDS011;3875;46.562;4.898;2023-04-16T02:17:06;8.57;;;5.73;;
7665;SDS011;3875;46.562;4.898;2023-04-16T02:19:31;13.73;;;5.67;;
7665;SDS011;3875;46.562;4.898;2023-04-16T02:21:57;7.50;;;5.43;;
7665;SDS011;3875;46.562;4.898;2023-04-16T02:24:25;6.83;;;5.10;;
7665;SDS011;3875;46.562;4.898;2023-04-16T02:26:51;10.97;;;5.33;;
7665;SDS011;3875;46.562;4.898;2023-04-16T02:29:16;8.47;;;5.30;;
7665;SDS011;3875;46.562;4.898;2023-04-16T02:31:42;8.07;;;5.83;;
7665;SDS011;3875;46.562;4.898;2023-04-16T02:34:08;6.37;;;5.30;;
7665;SDS011;3875;46.562;4.898;2023-04-16T02:36:34;6.27;;;5.20;;
7665;SDS011;3875;46.562;4.898;2023-04-16T02:38:59;7.77;;;5.57;;
7665;SDS011;3875;46.562;4.898;2023-04-16T02:41:25;9.57;;;6.03;;
7665;SDS011;3875;46.562;4.898;2023-04-16T02:43:51;8.97;;;4.93;;
7665;SDS011;3875;46.562;4.898;2023-04-16T02:46:16;9.83;;;5.60;;
7665;SDS011;3875;46.562;4.898;2023-04-16T02:48:42;9.23;;;6.10;;
7665;SDS011;3875;46.562;4.898;2023-04-16T02:51:08;10.00;;;5.63;;
7665;SDS011;3875;46.562;4.898;2023-04-16T02:53:33;8.57;;;5.40;;
7665;SDS011;3875;46.562;4.898;2023-04-16T02:55:59;7.70;;;5.43;;
7665;SDS011;3875;46.562;4.898;2023-04-16T02:58:25;9.10;;;5.80;;
7665;SDS011;3875;46.562;4.898;2023-04-16T03:00:51;6.37;;;5.40;;
7665;SDS011;3875;46.562;4.898;2023-04-16T03:03:18;6.63;;;5.53;;
7665;SDS011;3875;46.562;4.898;2023-04-16T03:05:45;8.63;;;4.67;;
7665;SDS011;3875;46.562;4.898;2023-04-16T03:08:11;7.77;;;5.30;;
7665;SDS011;3875;46.562;4.898;2023-04-16T03:10:36;8.63;;;5.50;;
7665;SDS011;3875;46.562;4.898;2023-04-16T03:13:02;5.87;;;4.87;;
7665;SDS011;3875;46.562;4.898;2023-04-16T03:15:28;5.57;;;5.03;;
7665;SDS011;3875;46.562;4.898;2023-04-16T03:17:55;8.47;;;5.43;;
7665;SDS011;3875;46.562;4.898;2023-04-16T03:20:21;5.93;;;5.43;;
7665;SDS011;3875;46.562;4.898;2023-04-16T03:22:47;6.37;;;5.40;;
7665;SDS011;3875;46.562;4.898;2023-04-16T03:25:13;5.77;;;5.10;;
7665;SDS011;3875;46.562;4.898;2023-04-16T03:27:39;7.83;;;5.47;;
7665;SDS011;3875;46.562;4.898;2023-04-16T03:30:05;6.23;;;4.77;;
7665;SDS011;3875;46.562;4.898;2023-04-16T03:32:32;6.00;;;5.20;;
7665;SDS011;3875;46.562;4.898;2023-04-16T03:34:57;7.17;;;5.70;;
7665;SDS011;3875;46.562;4.898;2023-04-16T03:37:23;5.47;;;4.90;;
7665;SDS011;3875;46.562;4.898;2023-04-16T03:39:49;10.17;;;5.47;;
7665;SDS011;3875;46.562;4.898;2023-04-16T03:42:15;9.07;;;5.40;;
7665;SDS011;3875;46.562;4.898;2023-04-16T03:44:41;10.20;;;5.77;;
7665;SDS011;3875;46.562;4.898;2023-04-16T03:47:06;9.03;;;5.77;;
7665;SDS011;3875;46.562;4.898;2023-04-16T03:49:32;8.20;;;5.77;;
7665;SDS011;3875;46.562;4.898;2023-04-16T03:51:58;9.40;;;6.27;;
7665;SDS011;3875;46.562;4.898;2023-04-16T03:54:23;8.57;;;5.83;;
7665;SDS011;3875;46.562;4.898;2023-04-16T03:56:49;9.43;;;5.90;;
7665;SDS011;3875;46.562;4.898;2023-04-16T03:59:16;8.03;;;5.73;;
7665;SDS011;3875;46.562;4.898;2023-04-16T04:01:41;9.27;;;6.23;;
7665;SDS011;3875;46.562;4.898;2023-04-16T04:04:07;7.80;;;5.90;;
7665;SDS011;3875;46.562;4.898;2023-04-16T04:06:33;6.57;;;5.50;;
7665;SDS011;3875;46.562;4.898;2023-04-16T04:08:59;7.63;;;5.50;;
7665;SDS011;3875;46.562;4.898;2023-04-16T04:11:25;8.93;;;6.27;;
7665;SDS011;3875;46.562;4.898;2023-04-16T04:13:50;8.67;;;6.20;;
7665;SDS011;3875;46.562;4.898;2023-04-16T04:16:16;8.37;;;6.10;;
7665;SDS011;3875;46.562;4.898;2023-04-16T04:18:42;7.40;;;5.93;;
7665;SDS011;3875;46.562;4.898;2023-04-16T04:21:10;8.77;;;6.60;;
7665;SDS011;3875;46.562;4.898;2023-04-16T04:23:36;16.10;;;7.07;;
7665;SDS011;3875;46.562;4.898;2023-04-16T04:26:02;8.20;;;5.73;;
7665;SDS011;3875;46.562;4.898;2023-04-16T04:28:29;8.93;;;6.43;;
7665;SDS011;3875;46.562;4.898;2023-04-16T04:30:56;7.73;;;6.77;;
7665;SDS011;3875;46.562;4.898;2023-04-16T04:33:23;8.53;;;6.50;;
7665;SDS011;3875;46.562;4.898;2023-04-16T04:35:49;8.93;;;6.70;;
7665;SDS011;3875;46.562;4.898;2023-04-16T04:38:15;10.13;;;6.63;;
7665;SDS011;3875;46.562;4.898;2023-04-16T04:40:43;7.90;;;6.63;;
7665;SDS011;3875;46.562;4.898;2023-04-16T04:43:10;10.33;;;6.83;;
7665;SDS011;3875;46.562;4.898;2023-04-16T04:45:35;9.93;;;6.47;;
7665;SDS011;3875;46.562;4.898;2023-04-16T04:48:01;9.17;;;6.33;;
7665;SDS011;3875;46.562;4.898;2023-04-16T04:50:27;10.53;;;7.03;;
7665;SDS011;3875;46.562;4.898;2023-04-16T04:52:53;9.70;;;7.17;;
7665;SDS011;3875;46.562;4.898;2023-04-16T04:55:18;9.40;;;6.70;;
7665;SDS011;3875;46.562;4.898;2023-04-16T04:57:44;9.20;;;6.87;;
7665;SDS011;3875;46.562;4.898;2023-04-16T05:00:10;10.73;;;7.40;;
7665;SDS011;3875;46.562;4.898;2023-04-16T05:02:36;10.13;;;5.67;;
7665;SDS011;3875;46.562;4.898;2023-04-16T05:05:02;6.77;;;6.00;;
7665;SDS011;3875;46.562;4.898;2023-04-16T05:07:29;9.40;;;6.87;;
7665;SDS011;3875;46.562;4.898;2023-04-16T05:09:54;10.93;;;6.87;;
7665;SDS011;3875;46.562;4.898;2023-04-16T05:12:20;10.07;;;6.70;;
7665;SDS011;3875;46.562;4.898;2023-04-16T05:14:46;9.53;;;7.30;;
7665;SDS011;3875;46.562;4.898;2023-04-16T05:17:11;9.60;;;7.70;;
7665;SDS011;3875;46.562;4.898;2023-04-16T05:19:37;10.60;;;7.23;;
7665;SDS011;3875;46.562;4.898;2023-04-16T05:22:03;7.30;;;6.13;;
7665;SDS011;3875;46.562;4.898;2023-04-16T05:24:28;8.60;;;6.63;;
7665;SDS011;3875;46.562;4.898;2023-04-16T05:26:55;10.07;;;7.03;;
7665;SDS011;3875;46.562;4.898;2023-04-16T05:29:21;10.47;;;7.07;;
7665;SDS011;3875;46.562;4.898;2023-04-16T05:31:47;8.13;;;6.20;;
7665;SDS011;3875;46.562;4.898;2023-04-16T05:34:12;8.53;;;6.40;;
7665;SDS011;3875;46.562;4.898;2023-04-16T05:36:38;9.93;;;6.10;;
7665;SDS011;3875;46.562;4.898;2023-04-16T05:39:03;8.37;;;6.80;;
7665;SDS011;3875;46.562;4.898;2023-04-16T05:41:30;9.37;;;7.00;;
7665;SDS011;3875;46.562;4.898;2023-04-16T05:43:55;7.30;;;6.13;;
7665;SDS011;3875;46.562;4.898;2023-04-16T05:46:21;9.83;;;6.23;;
7665;SDS011;3875;46.562;4.898;2023-04-16T05:48:46;9.17;;;7.33;;
7665;SDS011;3875;46.562;4.898;2023-04-16T05:51:12;8.47;;;6.30;;
7665;SDS011;3875;46.562;4.898;2023-04-16T05:53:38;12.33;;;6.83;;
7665;SDS011;3875;46.562;4.898;2023-04-16T05:56:03;9.20;;;6.20;;
7665;SDS011;3875;46.562;4.898;2023-04-16T05:58:29;12.93;;;7.00;;
7665;SDS011;3875;46.562;4.898;2023-04-16T06:00:55;7.80;;;7.00;;
7665;SDS011;3875;46.562;4.898;2023-04-16T06:03:21;10.77;;;6.73;;
7665;SDS011;3875;46.562;4.898;2023-04-16T06:05:47;11.77;;;7.33;;
7665;SDS011;3875;46.562;4.898;2023-04-16T06:08:12;7.07;;;6.33;;
7665;SDS011;3875;46.562;4.898;2023-04-16T06:10:38;9.83;;;6.90;;
7665;SDS011;3875;46.562;4.898;2023-04-16T06:13:04;6.93;;;6.17;;
7665;SDS011;3875;46.562;4.898;2023-04-16T06:15:29;9.37;;;6.37;;
7665;SDS011;3875;46.562;4.898;2023-04-16T06:17:55;7.83;;;6.07;;
7665;SDS011;3875;46.562;4.898;2023-04-16T06:20:20;8.83;;;6.13;;
7665;SDS011;3875;46.562;4.898;2023-04-16T06:22:46;9.77;;;7.13;;
7665;SDS011;3875;46.562;4.898;2023-04-16T06:25:12;6.80;;;6.00;;
7665;SDS011;3875;46.562;4.898;2023-04-16T06:27:38;11.70;;;6.50;;
7665;SDS011;3875;46.562;4.898;2023-04-16T06:30:04;7.73;;;6.80;;
7665;SDS011;3875;46.562;4.898;2023-04-16T06:32:35;8.90;;;5.87;;
7665;SDS011;3875;46.562;4.898;2023-04-16T06:35:04;7.97;;;6.33;;
7665;SDS011;3875;46.562;4.898;2023-04-16T06:37:30;7.57;;;6.40;;
7665;SDS011;3875;46.562;4.898;2023-04-16T06:39:55;10.57;;;6.33;;
7665;SDS011;3875;46.562;4.898;2023-04-16T06:42:21;7.97;;;5.97;;
7665;SDS011;3875;46.562;4.898;2023-04-16T06:44:47;8.83;;;6.20;;
7665;SDS011;3875;46.562;4.898;2023-04-16T06:47:13;9.73;;;5.90;;
7665;SDS011;3875;46.562;4.898;2023-04-16T06:49:39;7.77;;;6.57;;
7665;SDS011;3875;46.562;4.898;2023-04-16T06:52:04;9.53;;;7.00;;
7665;SDS011;3875;46.562;4.898;2023-04-16T06:54:30;11.07;;;6.57;;
7665;SDS011;3875;46.562;4.898;2023-04-16T06:56:56;9.47;;;6.43;;
7665;SDS011;3875;46.562;4.898;2023-04-16T06:59:22;9.93;;;6.50;;
7665;SDS011;3875;46.562;4.898;2023-04-16T07:01:47;8.43;;;6.33;;
7665;SDS011;3875;46.562;4.898;2023-04-16T07:04:13;8.87;;;6.53;;
7665;SDS011;3875;46.562;4.898;2023-04-16T07:06:38;8.13;;;6.60;;
7665;SDS011;3875;46.562;4.898;2023-04-16T07:09:04;9.97;;;6.63;;
7665;SDS011;3875;46.562;4.898;2023-04-16T07:11:30;7.50;;;6.00;;
7665;SDS011;3875;46.562;4.898;2023-04-16T07:13:55;7.97;;;5.93;;
7665;SDS011;3875;46.562;4.898;2023-04-16T07:16:22;9.63;;;5.13;;
7665;SDS011;3875;46.562;4.898;2023-04-16T07:18:48;8.93;;;6.13;;
7665;SDS011;3875;46.562;4.898;2023-04-16T07:21:14;6.57;;;5.93;;
7665;SDS011;3875;46.562;4.898;2023-04-16T07:23:40;7.57;;;5.60;;
7665;SDS011;3875;46.562;4.898;2023-04-16T07:26:05;8.07;;;6.20;;
7665;SDS011;3875;46.562;4.898;2023-04-16T07:28:31;8.07;;;6.00;;
7665;SDS011;3875;46.562;4.898;2023-04-16T07:30:57;9.07;;;6.00;;
7665;SDS011;3875;46.562;4.898;2023-04-16T07:33:23;6.80;;;6.10;;
7665;SDS011;3875;46.562;4.898;2023-04-16T07:35:48;6.90;;;5.90;;
7665;SDS011;3875;46.562;4.898;2023-04-16T07:38:15;7.50;;;5.27;;
7665;SDS011;3875;46.562;4.898;2023-04-16T07:40:43;8.50;;;6.07;;
7665;SDS011;3875;46.562;4.898;2023-04-16T07:43:09;11.00;;;6.47;;
7665;SDS011;3875;46.562;4.898;2023-04-16T07:45:35;6.40;;;4.33;;
7665;SDS011;3875;46.562;4.898;2023-04-16T07:48:00;11.33;;;6.57;;
7665;SDS011;3875;46.562;4.898;2023-04-16T07:50:26;9.00;;;6.13;;
7665;SDS011;3875;46.562;4.898;2023-04-16T07:52:52;9.40;;;7.78;;
7665;SDS011;3875;46.562;4.898;2023-04-16T07:55:18;7.33;;;6.60;;
7665;SDS011;3875;46.562;4.898;2023-04-16T07:57:43;11.13;;;6.63;;
7665;SDS011;3875;46.562;4.898;2023-04-16T08:00:09;11.87;;;6.40;;
7665;SDS011;3875;46.562;4.898;2023-04-16T08:02:36;7.93;;;6.10;;
7665;SDS011;3875;46.562;4.898;2023-04-16T08:05:01;8.90;;;7.70;;
7665;SDS011;3875;46.562;4.898;2023-04-16T08:07:27;8.90;;;7.33;;
7665;SDS011;3875;46.562;4.898;2023-04-16T08:09:53;11.65;;;8.10;;
7665;SDS011;3875;46.562;4.898;2023-04-16T08:12:19;11.50;;;7.50;;
7665;SDS011;3875;46.562;4.898;2023-04-16T08:14:45;7.50;;;6.70;;
7665;SDS011;3875;46.562;4.898;2023-04-16T08:17:12;9.20;;;7.47;;
7665;SDS011;3875;46.562;4.898;2023-04-16T08:19:38;10.80;;;8.13;;
7665;SDS011;3875;46.562;4.898;2023-04-16T08:22:04;11.10;;;8.00;;
7665;SDS011;3875;46.562;4.898;2023-04-16T08:24:30;13.80;;;7.77;;
7665;SDS011;3875;46.562;4.898;2023-04-16T08:26:56;9.87;;;6.60;;
7665;SDS011;3875;46.562;4.898;2023-04-16T08:29:22;13.00;;;8.87;;
7665;SDS011;3875;46.562;4.898;2023-04-16T08:31:50;9.37;;;6.90;;
7665;SDS011;3875;46.562;4.898;2023-04-16T08:34:17;12.07;;;8.43;;
7665;SDS011;3875;46.562;4.898;2023-04-16T08:36:42;12.33;;;8.90;;
7665;SDS011;3875;46.562;4.898;2023-04-16T08:39:08;12.37;;;8.30;;
7665;SDS011;3875;46.562;4.898;2023-04-16T08:41:34;14.50;;;8.90;;
7665;SDS011;3875;46.562;4.898;2023-04-16T08:44:06;13.00;;;8.27;;
7665;SDS011;3875;46.562;4.898;2023-04-16T08:46:36;10.00;;;8.27;;
7665;SDS011;3875;46.562;4.898;2023-04-16T08:49:04;13.17;;;8.70;;
7665;SDS011;3875;46.562;4.898;2023-04-16T08:51:34;10.60;;;7.97;;
7665;SDS011;3875;46.562;4.898;2023-04-16T08:54:04;12.90;;;8.53;;
7665;SDS011;3875;46.562;4.898;2023-04-16T08:56:35;11.67;;;8.00;;
7665;SDS011;3875;46.562;4.898;2023-04-16T08:59:01;11.70;;;8.20;;
7665;SDS011;3875;46.562;4.898;2023-04-16T09:01:30;12.87;;;8.90;;
7665;SDS011;3875;46.562;4.898;2023-04-16T09:03:57;10.17;;;7.67;;
7665;SDS011;3875;46.562;4.898;2023-04-16T09:06:26;15.63;;;8.60;;
7665;SDS011;3875;46.562;4.898;2023-04-16T09:08:52;13.10;;;8.20;;
7665;SDS011;3875;46.562;4.898;2023-04-16T09:11:19;12.43;;;8.10;;
7665;SDS011;3875;46.562;4.898;2023-04-16T09:13:45;11.80;;;7.53;;
7665;SDS011;3875;46.562;4.898;2023-04-16T09:16:11;11.20;;;8.50;;
7665;SDS011;3875;46.562;4.898;2023-04-16T09:18:38;11.50;;;7.87;;
7665;SDS011;3875;46.562;4.898;2023-04-16T09:21:04;12.13;;;7.93;;
7665;SDS011;3875;46.562;4.898;2023-04-16T09:23:31;16.50;;;8.37;;
7665;SDS011;3875;46.562;4.898;2023-04-16T09:25:58;12.13;;;7.80;;
7665;SDS011;3875;46.562;4.898;2023-04-16T09:31:12;9.80;;;6.87;;
7665;SDS011;3875;46.562;4.898;2023-04-16T09:33:39;12.37;;;7.50;;
7665;SDS011;3875;46.562;4.898;2023-04-16T09:36:06;10.80;;;7.43;;
7665;SDS011;3875;46.562;4.898;2023-04-16T09:38:48;10.83;;;8.17;;
7665;SDS011;3875;46.562;4.898;2023-04-16T09:41:15;9.67;;;7.73;;
7665;SDS011;3875;46.562;4.898;2023-04-16T09:43:48;13.23;;;8.40;;
7665;SDS011;3875;46.562;4.898;2023-04-16T09:46:18;12.67;;;8.20;;
7665;SDS011;3875;46.562;4.898;2023-04-16T09:48:44;12.00;;;8.57;;
7665;SDS011;3875;46.562;4.898;2023-04-16T09:51:11;15.03;;;8.07;;
7665;SDS011;3875;46.562;4.898;2023-04-16T09:53:37;13.93;;;8.33;;
7665;SDS011;3875;46.562;4.898;2023-04-16T09:56:04;13.03;;;7.13;;
7665;SDS011;3875;46.562;4.898;2023-04-16T09:58:31;10.93;;;8.53;;
7665;SDS011;3875;46.562;4.898;2023-04-16T10:01:00;8.87;;;6.27;;
7665;SDS011;3875;46.562;4.898;2023-04-16T10:03:33;10.80;;;7.90;;
7665;SDS011;3875;46.562;4.898;2023-04-16T10:06:13;10.53;;;8.13;;
7665;SDS011;3875;46.562;4.898;2023-04-16T10:08:46;11.53;;;8.50;;
7665;SDS011;3875;46.562;4.898;2023-04-16T10:11:17;12.30;;;8.57;;
7665;SDS011;3875;46.562;4.898;2023-04-16T10:13:43;12.47;;;7.93;;
7665;SDS011;3875;46.562;4.898;2023-04-16T10:16:10;12.30;;;7.63;;
7665;SDS011;3875;46.562;4.898;2023-04-16T10:18:37;11.23;;;7.73;;
7665;SDS011;3875;46.562;4.898;2023-04-16T10:21:04;16.20;;;8.00;;
7665;SDS011;3875;46.562;4.898;2023-04-16T10:23:31;11.90;;;8.57;;
7665;SDS011;3875;46.562;4.898;2023-04-16T10:25:58;12.10;;;8.10;;
7665;SDS011;3875;46.562;4.898;2023-04-16T10:28:25;11.37;;;7.87;;
7665;SDS011;3875;46.562;4.898;2023-04-16T10:30:53;9.37;;;6.97;;
7665;SDS011;3875;46.562;4.898;2023-04-16T10:33:27;11.63;;;8.10;;
7665;SDS011;3875;46.562;4.898;2023-04-16T10:36:07;16.83;;;8.30;;
7665;SDS011;3875;46.562;4.898;2023-04-16T10:38:36;12.43;;;8.10;;
7665;SDS011;3875;46.562;4.898;2023-04-16T10:41:08;13.27;;;8.23;;
7665;SDS011;3875;46.562;4.898;2023-04-16T10:43:53;15.70;;;8.50;;
7665;SDS011;3875;46.562;4.898;2023-04-16T10:46:34;11.83;;;7.33;;
7665;SDS011;3875;46.562;4.898;2023-04-16T10:49:13;10.27;;;8.00;;
7665;SDS011;3875;46.562;4.898;2023-04-16T10:56:48;11.07;;;7.97;;
7665;SDS011;3875;46.562;4.898;2023-04-16T10:59:16;10.30;;;8.17;;
7665;SDS011;3875;46.562;4.898;2023-04-16T11:01:48;15.27;;;9.33;;
7665;SDS011;3875;46.562;4.898;2023-04-16T11:20:09;11.73;;;8.07;;
7665;SDS011;3875;46.562;4.898;2023-04-16T11:22:42;12.80;;;9.30;;
7665;SDS011;3875;46.562;4.898;2023-04-16T11:25:09;11.20;;;8.77;;
7665;SDS011;3875;46.562;4.898;2023-04-16T11:27:35;14.43;;;9.47;;
7665;SDS011;3875;46.562;4.898;2023-04-16T11:30:02;5.17;;;3.80;;
7665;SDS011;3875;46.562;4.898;2023-04-16T11:32:33;11.20;;;9.07;;
7665;SDS011;3875;46.562;4.898;2023-04-16T11:35:03;16.80;;;9.60;;
7665;SDS011;3875;46.562;4.898;2023-04-16T11:37:40;13.57;;;9.47;;
7665;SDS011;3875;46.562;4.898;2023-04-16T11:40:06;13.33;;;9.00;;
7665;SDS011;3875;46.562;4.898;2023-04-16T11:42:34;11.73;;;9.83;;
7665;SDS011;3875;46.562;4.898;2023-04-16T11:45:07;13.87;;;9.13;;
7665;SDS011;3875;46.562;4.898;2023-04-16T11:50:23;14.97;;;11.00;;
7665;SDS011;3875;46.562;4.898;2023-04-16T11:52:50;15.87;;;10.40;;
7665;SDS011;3875;46.562;4.898;2023-04-16T11:55:16;14.97;;;9.90;;
7665;SDS011;3875;46.562;4.898;2023-04-16T11:57:43;12.10;;;6.50;;
7665;SDS011;3875;46.562;4.898;2023-04-16T12:00:10;14.90;;;9.97;;
7665;SDS011;3875;46.562;4.898;2023-04-16T12:02:43;15.23;;;9.83;;
7665;SDS011;3875;46.562;4.898;2023-04-16T12:05:52;16.80;;;9.27;;
7665;SDS011;3875;46.562;4.898;2023-04-16T12:08:03;13.17;;;9.83;;
7665;SDS011;3875;46.562;4.898;2023-04-16T12:10:31;16.47;;;10.63;;
7665;SDS011;3875;46.562;4.898;2023-04-16T12:13:14;17.93;;;10.13;;
7665;SDS011;3875;46.562;4.898;2023-04-16T12:15:48;14.97;;;10.10;;
7665;SDS011;3875;46.562;4.898;2023-04-16T12:18:15;15.47;;;10.17;;
7665;SDS011;3875;46.562;4.898;2023-04-16T12:20:42;13.70;;;10.30;;
7665;SDS011;3875;46.562;4.898;2023-04-16T12:23:09;14.07;;;10.80;;
7665;SDS011;3875;46.562;4.898;2023-04-16T12:25:45;13.57;;;10.27;;
7665;SDS011;3875;46.562;4.898;2023-04-16T12:28:13;14.03;;;9.97;;
7665;SDS011;3875;46.562;4.898;2023-04-16T12:30:47;13.83;;;10.40;;
7665;SDS011;3875;46.562;4.898;2023-04-16T12:33:17;13.83;;;10.33;;
7665;SDS011;3875;46.562;4.898;2023-04-16T12:35:43;14.27;;;11.23;;
7665;SDS011;3875;46.562;4.898;2023-04-16T12:38:09;14.47;;;10.63;;
7665;SDS011;3875;46.562;4.898;2023-04-16T12:40:36;15.57;;;10.43;;
7665;SDS011;3875;46.562;4.898;2023-04-16T12:43:02;16.23;;;11.30;;
7665;SDS011;3875;46.562;4.898;2023-04-16T12:45:28;13.53;;;10.17;;
7665;SDS011;3875;46.562;4.898;2023-04-16T12:47:53;13.17;;;9.57;;
7665;SDS011;3875;46.562;4.898;2023-04-16T12:50:19;13.73;;;9.90;;
7665;SDS011;3875;46.562;4.898;2023-04-16T12:52:45;15.10;;;9.73;;
7665;SDS011;3875;46.562;4.898;2023-04-16T12:55:11;12.07;;;9.87;;
7665;SDS011;3875;46.562;4.898;2023-04-16T12:57:38;9.80;;;6.90;;
7665;SDS011;3875;46.562;4.898;2023-04-16T13:00:04;13.47;;;10.73;;
7665;SDS011;3875;46.562;4.898;2023-04-16T13:02:30;15.33;;;9.63;;
7665;SDS011;3875;46.562;4.898;2023-04-16T13:04:56;15.03;;;10.97;;
7665;SDS011;3875;46.562;4.898;2023-04-16T13:07:22;16.87;;;11.23;;
7665;SDS011;3875;46.562;4.898;2023-04-16T13:09:50;16.60;;;10.80;;
7665;SDS011;3875;46.562;4.898;2023-04-16T13:12:16;14.97;;;10.27;;
7665;SDS011;3875;46.562;4.898;2023-04-16T13:14:42;15.30;;;10.73;;
7665;SDS011;3875;46.562;4.898;2023-04-16T13:17:08;12.30;;;9.50;;
7665;SDS011;3875;46.562;4.898;2023-04-16T13:19:34;13.57;;;9.97;;
7665;SDS011;3875;46.562;4.898;2023-04-16T13:21:59;13.50;;;10.07;;
7665;SDS011;3875;46.562;4.898;2023-04-16T13:24:25;16.13;;;10.90;;
7665;SDS011;3875;46.562;4.898;2023-04-16T13:26:51;13.57;;;10.43;;
7665;SDS011;3875;46.562;4.898;2023-04-16T13:29:18;14.23;;;9.30;;
7665;SDS011;3875;46.562;4.898;2023-04-16T13:31:44;13.37;;;10.00;;
7665;SDS011;3875;46.562;4.898;2023-04-16T13:34:10;17.17;;;10.57;;
7665;SDS011;3875;46.562;4.898;2023-04-16T13:36:36;11.70;;;9.47;;
7665;SDS011;3875;46.562;4.898;2023-04-16T13:39:02;12.60;;;9.97;;
7665;SDS011;3875;46.562;4.898;2023-04-16T13:41:34;14.13;;;10.37;;
7665;SDS011;3875;46.562;4.898;2023-04-16T13:44:00;14.33;;;9.97;;
7665;SDS011;3875;46.562;4.898;2023-04-16T13:46:26;15.37;;;10.40;;
7665;SDS011;3875;46.562;4.898;2023-04-16T13:48:53;16.20;;;10.50;;
7665;SDS011;3875;46.562;4.898;2023-04-16T13:51:18;13.70;;;10.10;;
7665;SDS011;3875;46.562;4.898;2023-04-16T13:53:44;15.57;;;10.43;;
7665;SDS011;3875;46.562;4.898;2023-04-16T13:56:10;17.03;;;10.53;;
7665;SDS011;3875;46.562;4.898;2023-04-16T13:58:36;15.97;;;11.57;;
7665;SDS011;3875;46.562;4.898;2023-04-16T14:01:02;16.67;;;10.87;;
7665;SDS011;3875;46.562;4.898;2023-04-16T14:03:27;15.77;;;11.43;;
7665;SDS011;3875;46.562;4.898;2023-04-16T14:05:53;19.23;;;12.00;;
7665;SDS011;3875;46.562;4.898;2023-04-16T14:08:19;15.43;;;10.17;;
7665;SDS011;3875;46.562;4.898;2023-04-16T14:10:48;14.37;;;10.37;;
7665;SDS011;3875;46.562;4.898;2023-04-16T14:13:13;12.90;;;10.10;;
7665;SDS011;3875;46.562;4.898;2023-04-16T14:15:40;12.57;;;10.30;;
7665;SDS011;3875;46.562;4.898;2023-04-16T14:18:05;18.80;;;10.73;;
7665;SDS011;3875;46.562;4.898;2023-04-16T14:20:31;20.93;;;11.20;;
7665;SDS011;3875;46.562;4.898;2023-04-16T14:22:57;17.13;;;11.70;;
7665;SDS011;3875;46.562;4.898;2023-04-16T14:25:23;19.47;;;11.87;;
7665;SDS011;3875;46.562;4.898;2023-04-16T14:27:48;16.50;;;11.37;;
7665;SDS011;3875;46.562;4.898;2023-04-16T14:30:15;19.77;;;11.90;;
7665;SDS011;3875;46.562;4.898;2023-04-16T14:32:40;18.63;;;11.93;;
7665;SDS011;3875;46.562;4.898;2023-04-16T14:35:06;18.07;;;11.63;;
7665;SDS011;3875;46.562;4.898;2023-04-16T14:37:34;14.20;;;10.03;;
7665;SDS011;3875;46.562;4.898;2023-04-16T14:40:01;17.80;;;12.07;;
7665;SDS011;3875;46.562;4.898;2023-04-16T14:42:31;17.03;;;12.20;;
7665;SDS011;3875;46.562;4.898;2023-04-16T14:44:57;17.70;;;12.03;;
7665;SDS011;3875;46.562;4.898;2023-04-16T14:47:22;20.97;;;12.30;;
7665;SDS011;3875;46.562;4.898;2023-04-16T14:49:48;15.33;;;10.23;;
7665;SDS011;3875;46.562;4.898;2023-04-16T14:52:14;20.33;;;12.60;;
7665;SDS011;3875;46.562;4.898;2023-04-16T14:54:40;19.03;;;13.33;;
7665;SDS011;3875;46.562;4.898;2023-04-16T14:57:06;17.00;;;11.73;;
7665;SDS011;3875;46.562;4.898;2023-04-16T14:59:32;17.77;;;12.70;;
7665;SDS011;3875;46.562;4.898;2023-04-16T15:01:57;17.53;;;13.20;;
7665;SDS011;3875;46.562;4.898;2023-04-16T15:04:23;18.63;;;12.63;;
7665;SDS011;3875;46.562;4.898;2023-04-16T15:06:49;17.40;;;12.87;;
7665;SDS011;3875;46.562;4.898;2023-04-16T15:09:15;19.93;;;12.30;;
7665;SDS011;3875;46.562;4.898;2023-04-16T15:11:41;20.97;;;13.33;;
7665;SDS011;3875;46.562;4.898;2023-04-16T15:14:06;23.47;;;13.90;;
7665;SDS011;3875;46.562;4.898;2023-04-16T15:16:32;19.80;;;13.33;;
7665;SDS011;3875;46.562;4.898;2023-04-16T15:18:58;19.23;;;13.10;;
7665;SDS011;3875;46.562;4.898;2023-04-16T15:21:24;21.97;;;13.60;;
7665;SDS011;3875;46.562;4.898;2023-04-16T15:23:52;20.97;;;14.00;;
7665;SDS011;3875;46.562;4.898;2023-04-16T15:26:18;21.10;;;13.10;;
7665;SDS011;3875;46.562;4.898;2023-04-16T15:28:44;24.27;;;14.33;;